sensor_id;sensor_type;location;lat;lon;timestamp;P1;durP1;ratioP1;P2;durP2;ratioP2
10461;SDS011;5278;42.656;23.374;2023-02-18T00:00:17;14.57;;;7.97;;
10461;SDS011;5278;42.656;23.374;2023-02-18T00:02:48;12.87;;;7.93;;
10461;SDS011;5278;42.656;23.374;2023-02-18T00:05:19;14.17;;;8.03;;
10461;SDS011;5278;42.656;23.374;2023-02-18T00:07:47;12.70;;;8.40;;
10461;SDS011;5278;42.656;23.374;2023-02-18T00:10:14;10.37;;;7.30;;
10461;SDS011;5278;42.656;23.374;2023-02-18T00:12:43;9.73;;;7.07;;
10461;SDS011;5278;42.656;23.374;2023-02-18T00:15:10;12.33;;;7.87;;
10461;SDS011;5278;42.656;23.374;2023-02-18T00:17:38;12.97;;;7.40;;
10461;SDS011;5278;42.656;23.374;2023-02-18T00:20:05;11.20;;;7.07;;
10461;SDS011;5278;42.656;23.374;2023-02-18T00:22:33;13.73;;;6.90;;
10461;SDS011;5278;42.656;23.374;2023-02-18T00:25:00;10.13;;;7.13;;
10461;SDS011;5278;42.656;23.374;2023-02-18T00:27:29;11.83;;;8.33;;
10461;SDS011;5278;42.656;23.374;2023-02-18T00:29:58;12.77;;;7.17;;
10461;SDS011;5278;42.656;23.374;2023-02-18T00:32:25;10.97;;;6.90;;
10461;SDS011;5278;42.656;23.374;2023-02-18T00:34:52;11.03;;;7.40;;
10461;SDS011;5278;42.656;23.374;2023-02-18T00:37:19;13.03;;;7.73;;
10461;SDS011;5278;42.656;23.374;2023-02-18T00:39:46;10.90;;;6.77;;
10461;SDS011;5278;42.656;23.374;2023-02-18T00:42:13;11.57;;;7.00;;
10461;SDS011;5278;42.656;23.374;2023-02-18T00:44:40;16.50;;;7.63;;
10461;SDS011;5278;42.656;23.374;2023-02-18T00:47:08;11.87;;;7.70;;
10461;SDS011;5278;42.656;23.374;2023-02-18T00:49:35;15.07;;;8.13;;
10461;SDS011;5278;42.656;23.374;2023-02-18T00:52:02;9.90;;;7.03;;
10461;SDS011;5278;42.656;23.374;2023-02-18T00:54:29;13.90;;;7.80;;
10461;SDS011;5278;42.656;23.374;2023-02-18T00:56:56;13.97;;;7.33;;
10461;SDS011;5278;42.656;23.374;2023-02-18T00:59:23;12.47;;;8.20;;
10461;SDS011;5278;42.656;23.374;2023-02-18T01:01:51;13.80;;;7.83;;
10461;SDS011;5278;42.656;23.374;2023-02-18T01:04:19;14.50;;;9.07;;
10461;SDS011;5278;42.656;23.374;2023-02-18T01:06:46;14.17;;;8.37;;
10461;SDS011;5278;42.656;23.374;2023-02-18T01:09:13;12.97;;;8.33;;
10461;SDS011;5278;42.656;23.374;2023-02-18T01:11:40;18.00;;;9.00;;
10461;SDS011;5278;42.656;23.374;2023-02-18T01:14:09;13.87;;;8.93;;
10461;SDS011;5278;42.656;23.374;2023-02-18T01:16:36;15.50;;;9.57;;
10461;SDS011;5278;42.656;23.374;2023-02-18T01:19:03;14.70;;;8.63;;
10461;SDS011;5278;42.656;23.374;2023-02-18T01:21:31;14.23;;;9.43;;
10461;SDS011;5278;42.656;23.374;2023-02-18T01:23:58;14.00;;;8.13;;
10461;SDS011;5278;42.656;23.374;2023-02-18T01:26:25;12.30;;;8.60;;
10461;SDS011;5278;42.656;23.374;2023-02-18T01:28:52;17.43;;;8.97;;
10461;SDS011;5278;42.656;23.374;2023-02-18T01:31:19;16.13;;;8.40;;
10461;SDS011;5278;42.656;23.374;2023-02-18T01:33:46;13.13;;;8.20;;
10461;SDS011;5278;42.656;23.374;2023-02-18T01:36:13;15.27;;;8.27;;
10461;SDS011;5278;42.656;23.374;2023-02-18T01:38:44;11.27;;;9.20;;
10461;SDS011;5278;42.656;23.374;2023-02-18T01:41:11;13.50;;;8.47;;
10461;SDS011;5278;42.656;23.374;2023-02-18T01:43:37;11.30;;;8.10;;
10461;SDS011;5278;42.656;23.374;2023-02-18T01:46:06;13.40;;;7.93;;
10461;SDS011;5278;42.656;23.374;2023-02-18T01:48:43;13.73;;;8.77;;
10461;SDS011;5278;42.656;23.374;2023-02-18T01:51:15;13.90;;;8.70;;
10461;SDS011;5278;42.656;23.374;2023-02-18T01:53:47;14.67;;;8.43;;
10461;SDS011;5278;42.656;23.374;2023-02-18T01:56:22;16.90;;;8.53;;
10461;SDS011;5278;42.656;23.374;2023-02-18T01:58:52;16.93;;;8.50;;
10461;SDS011;5278;42.656;23.374;2023-02-18T02:01:21;12.57;;;8.70;;
10461;SDS011;5278;42.656;23.374;2023-02-18T02:03:49;14.37;;;8.90;;
10461;SDS011;5278;42.656;23.374;2023-02-18T02:06:17;15.50;;;9.30;;
10461;SDS011;5278;42.656;23.374;2023-02-18T02:08:47;13.20;;;9.20;;
10461;SDS011;5278;42.656;23.374;2023-02-18T02:11:21;15.40;;;8.90;;
10461;SDS011;5278;42.656;23.374;2023-02-18T02:14:00;15.00;;;9.47;;
10461;SDS011;5278;42.656;23.374;2023-02-18T02:16:37;16.17;;;8.73;;
10461;SDS011;5278;42.656;23.374;2023-02-18T02:22:40;14.33;;;8.93;;
10461;SDS011;5278;42.656;23.374;2023-02-18T02:28:58;14.57;;;9.00;;
10461;SDS011;5278;42.656;23.374;2023-02-18T02:31:45;16.37;;;8.10;;
10461;SDS011;5278;42.656;23.374;2023-02-18T02:34:38;15.73;;;8.77;;
10461;SDS011;5278;42.656;23.374;2023-02-18T02:37:15;14.70;;;8.47;;
10461;SDS011;5278;42.656;23.374;2023-02-18T02:39:52;13.73;;;8.10;;
10461;SDS011;5278;42.656;23.374;2023-02-18T02:42:29;15.57;;;8.57;;
10461;SDS011;5278;42.656;23.374;2023-02-18T02:45:06;13.53;;;8.33;;
10461;SDS011;5278;42.656;23.374;2023-02-18T02:47:37;11.53;;;8.50;;
10461;SDS011;5278;42.656;23.374;2023-02-18T02:50:13;12.20;;;9.13;;
10461;SDS011;5278;42.656;23.374;2023-02-18T02:52:46;13.77;;;8.13;;
10461;SDS011;5278;42.656;23.374;2023-02-18T02:55:17;13.00;;;7.97;;
10461;SDS011;5278;42.656;23.374;2023-02-18T02:57:48;16.30;;;8.83;;
10461;SDS011;5278;42.656;23.374;2023-02-18T03:00:17;11.03;;;7.13;;
10461;SDS011;5278;42.656;23.374;2023-02-18T03:05:54;11.90;;;7.13;;
10461;SDS011;5278;42.656;23.374;2023-02-18T03:08:40;11.57;;;7.33;;
10461;SDS011;5278;42.656;23.374;2023-02-18T03:11:15;12.77;;;7.80;;
10461;SDS011;5278;42.656;23.374;2023-02-18T03:13:47;10.47;;;7.57;;
10461;SDS011;5278;42.656;23.374;2023-02-18T03:16:22;11.33;;;8.57;;
10461;SDS011;5278;42.656;23.374;2023-02-18T03:18:59;11.33;;;7.93;;
10461;SDS011;5278;42.656;23.374;2023-02-18T03:21:34;14.07;;;9.27;;
10461;SDS011;5278;42.656;23.374;2023-02-18T03:24:06;13.80;;;8.50;;
10461;SDS011;5278;42.656;23.374;2023-02-18T03:26:50;12.97;;;7.63;;
10461;SDS011;5278;42.656;23.374;2023-02-18T03:29:20;11.43;;;7.57;;
10461;SDS011;5278;42.656;23.374;2023-02-18T03:31:48;11.27;;;7.73;;
10461;SDS011;5278;42.656;23.374;2023-02-18T03:34:25;14.80;;;9.10;;
10461;SDS011;5278;42.656;23.374;2023-02-18T03:36:59;23.73;;;9.40;;
10461;SDS011;5278;42.656;23.374;2023-02-18T03:39:26;13.03;;;8.67;;
10461;SDS011;5278;42.656;23.374;2023-02-18T03:41:54;15.03;;;8.97;;
10461;SDS011;5278;42.656;23.374;2023-02-18T03:44:21;13.50;;;8.70;;
10461;SDS011;5278;42.656;23.374;2023-02-18T03:46:49;15.90;;;9.20;;
10461;SDS011;5278;42.656;23.374;2023-02-18T03:49:17;15.87;;;9.83;;
10461;SDS011;5278;42.656;23.374;2023-02-18T03:51:44;14.77;;;10.20;;
10461;SDS011;5278;42.656;23.374;2023-02-18T03:54:13;17.43;;;10.30;;
10461;SDS011;5278;42.656;23.374;2023-02-18T03:56:40;17.63;;;9.87;;
10461;SDS011;5278;42.656;23.374;2023-02-18T03:59:09;16.33;;;9.90;;
10461;SDS011;5278;42.656;23.374;2023-02-18T04:01:37;12.07;;;8.07;;
10461;SDS011;5278;42.656;23.374;2023-02-18T04:04:05;10.40;;;7.23;;
10461;SDS011;5278;42.656;23.374;2023-02-18T04:06:32;12.23;;;7.30;;
10461;SDS011;5278;42.656;23.374;2023-02-18T04:08:59;13.53;;;8.20;;
10461;SDS011;5278;42.656;23.374;2023-02-18T04:11:28;13.23;;;7.67;;
10461;SDS011;5278;42.656;23.374;2023-02-18T04:13:54;12.17;;;7.53;;
10461;SDS011;5278;42.656;23.374;2023-02-18T04:16:21;15.53;;;8.37;;
10461;SDS011;5278;42.656;23.374;2023-02-18T04:18:48;10.40;;;7.27;;
10461;SDS011;5278;42.656;23.374;2023-02-18T04:21:16;14.93;;;8.80;;
10461;SDS011;5278;42.656;23.374;2023-02-18T04:23:44;12.10;;;7.63;;
10461;SDS011;5278;42.656;23.374;2023-02-18T04:26:11;14.20;;;8.27;;
10461;SDS011;5278;42.656;23.374;2023-02-18T04:28:39;13.13;;;7.97;;
10461;SDS011;5278;42.656;23.374;2023-02-18T04:31:06;14.93;;;8.33;;
10461;SDS011;5278;42.656;23.374;2023-02-18T04:33:33;14.97;;;8.23;;
10461;SDS011;5278;42.656;23.374;2023-02-18T04:36:00;12.00;;;6.97;;
10461;SDS011;5278;42.656;23.374;2023-02-18T04:38:27;8.73;;;7.00;;
10461;SDS011;5278;42.656;23.374;2023-02-18T04:40:55;9.03;;;6.47;;
10461;SDS011;5278;42.656;23.374;2023-02-18T04:43:22;10.97;;;6.73;;
10461;SDS011;5278;42.656;23.374;2023-02-18T04:45:52;9.67;;;6.27;;
10461;SDS011;5278;42.656;23.374;2023-02-18T04:48:18;11.10;;;6.43;;
10461;SDS011;5278;42.656;23.374;2023-02-18T04:50:45;13.17;;;6.50;;
10461;SDS011;5278;42.656;23.374;2023-02-18T04:53:12;10.90;;;6.70;;
10461;SDS011;5278;42.656;23.374;2023-02-18T04:55:39;11.27;;;6.77;;
10461;SDS011;5278;42.656;23.374;2023-02-18T04:58:08;8.40;;;5.70;;
10461;SDS011;5278;42.656;23.374;2023-02-18T05:00:35;9.40;;;6.83;;
10461;SDS011;5278;42.656;23.374;2023-02-18T05:03:03;9.77;;;6.93;;
10461;SDS011;5278;42.656;23.374;2023-02-18T05:05:31;13.93;;;7.30;;
10461;SDS011;5278;42.656;23.374;2023-02-18T05:07:57;11.87;;;7.43;;
10461;SDS011;5278;42.656;23.374;2023-02-18T05:10:25;12.67;;;8.13;;
10461;SDS011;5278;42.656;23.374;2023-02-18T05:12:51;13.70;;;8.93;;
10461;SDS011;5278;42.656;23.374;2023-02-18T05:15:19;11.17;;;7.30;;
10461;SDS011;5278;42.656;23.374;2023-02-18T05:17:45;11.33;;;7.83;;
10461;SDS011;5278;42.656;23.374;2023-02-18T05:20:14;11.87;;;8.17;;
10461;SDS011;5278;42.656;23.374;2023-02-18T05:22:41;10.17;;;7.17;;
10461;SDS011;5278;42.656;23.374;2023-02-18T05:25:08;13.63;;;7.70;;
10461;SDS011;5278;42.656;23.374;2023-02-18T05:27:35;11.27;;;7.97;;
10461;SDS011;5278;42.656;23.374;2023-02-18T05:30:02;13.00;;;9.07;;
10461;SDS011;5278;42.656;23.374;2023-02-18T05:32:29;13.57;;;8.57;;
10461;SDS011;5278;42.656;23.374;2023-02-18T05:34:56;15.33;;;8.63;;
10461;SDS011;5278;42.656;23.374;2023-02-18T05:37:24;15.50;;;9.30;;
10461;SDS011;5278;42.656;23.374;2023-02-18T05:39:51;17.00;;;9.10;;
10461;SDS011;5278;42.656;23.374;2023-02-18T05:42:18;17.53;;;9.07;;
10461;SDS011;5278;42.656;23.374;2023-02-18T05:44:47;18.40;;;9.83;;
10461;SDS011;5278;42.656;23.374;2023-02-18T05:47:14;41.97;;;21.60;;
10461;SDS011;5278;42.656;23.374;2023-02-18T05:49:42;16.27;;;9.97;;
10461;SDS011;5278;42.656;23.374;2023-02-18T05:52:10;14.63;;;9.27;;
10461;SDS011;5278;42.656;23.374;2023-02-18T05:54:39;13.57;;;8.67;;
10461;SDS011;5278;42.656;23.374;2023-02-18T05:57:06;22.13;;;11.63;;
10461;SDS011;5278;42.656;23.374;2023-02-18T05:59:34;26.07;;;15.37;;
10461;SDS011;5278;42.656;23.374;2023-02-18T06:02:02;28.80;;;14.00;;
10461;SDS011;5278;42.656;23.374;2023-02-18T06:04:29;16.50;;;10.40;;
10461;SDS011;5278;42.656;23.374;2023-02-18T06:06:56;20.27;;;9.77;;
10461;SDS011;5278;42.656;23.374;2023-02-18T06:09:23;15.03;;;9.70;;
10461;SDS011;5278;42.656;23.374;2023-02-18T06:11:51;15.87;;;9.37;;
10461;SDS011;5278;42.656;23.374;2023-02-18T06:14:19;12.47;;;8.50;;
10461;SDS011;5278;42.656;23.374;2023-02-18T06:16:46;14.27;;;9.53;;
10461;SDS011;5278;42.656;23.374;2023-02-18T06:19:13;16.83;;;9.77;;
10461;SDS011;5278;42.656;23.374;2023-02-18T06:21:40;14.83;;;9.23;;
10461;SDS011;5278;42.656;23.374;2023-02-18T06:24:07;17.50;;;10.40;;
10461;SDS011;5278;42.656;23.374;2023-02-18T06:26:34;18.17;;;9.47;;
10461;SDS011;5278;42.656;23.374;2023-02-18T06:29:03;14.00;;;10.23;;
10461;SDS011;5278;42.656;23.374;2023-02-18T06:31:30;16.77;;;9.83;;
10461;SDS011;5278;42.656;23.374;2023-02-18T06:33:57;14.37;;;9.83;;
10461;SDS011;5278;42.656;23.374;2023-02-18T06:36:24;15.80;;;10.00;;
10461;SDS011;5278;42.656;23.374;2023-02-18T06:38:51;18.33;;;10.53;;
10461;SDS011;5278;42.656;23.374;2023-02-18T06:41:21;25.40;;;9.07;;
10461;SDS011;5278;42.656;23.374;2023-02-18T06:43:49;16.67;;;9.37;;
10461;SDS011;5278;42.656;23.374;2023-02-18T06:46:17;21.93;;;10.50;;
10461;SDS011;5278;42.656;23.374;2023-02-18T06:48:44;15.73;;;9.17;;
10461;SDS011;5278;42.656;23.374;2023-02-18T06:51:11;16.57;;;10.03;;
10461;SDS011;5278;42.656;23.374;2023-02-18T06:53:38;18.17;;;9.40;;
10461;SDS011;5278;42.656;23.374;2023-02-18T06:56:05;14.43;;;9.37;;
10461;SDS011;5278;42.656;23.374;2023-02-18T06:58:32;10.70;;;8.70;;
10461;SDS011;5278;42.656;23.374;2023-02-18T07:00:59;23.00;;;12.00;;
10461;SDS011;5278;42.656;23.374;2023-02-18T07:03:28;17.97;;;10.47;;
10461;SDS011;5278;42.656;23.374;2023-02-18T07:05:55;19.23;;;10.20;;
10461;SDS011;5278;42.656;23.374;2023-02-18T07:08:22;17.87;;;9.27;;
10461;SDS011;5278;42.656;23.374;2023-02-18T07:10:50;18.67;;;9.30;;
10461;SDS011;5278;42.656;23.374;2023-02-18T07:13:17;17.97;;;10.20;;
10461;SDS011;5278;42.656;23.374;2023-02-18T07:15:44;16.27;;;9.43;;
10461;SDS011;5278;42.656;23.374;2023-02-18T07:18:11;16.60;;;10.07;;
10461;SDS011;5278;42.656;23.374;2023-02-18T07:20:39;21.60;;;13.57;;
10461;SDS011;5278;42.656;23.374;2023-02-18T07:23:06;16.83;;;10.67;;
10461;SDS011;5278;42.656;23.374;2023-02-18T07:25:33;17.47;;;10.30;;
10461;SDS011;5278;42.656;23.374;2023-02-18T07:28:00;15.10;;;9.57;;
10461;SDS011;5278;42.656;23.374;2023-02-18T07:30:27;16.80;;;10.23;;
10461;SDS011;5278;42.656;23.374;2023-02-18T07:32:55;16.07;;;10.00;;
10461;SDS011;5278;42.656;23.374;2023-02-18T07:35:21;15.97;;;10.07;;
10461;SDS011;5278;42.656;23.374;2023-02-18T07:37:50;15.33;;;10.37;;
10461;SDS011;5278;42.656;23.374;2023-02-18T07:40:19;19.20;;;11.43;;
10461;SDS011;5278;42.656;23.374;2023-02-18T07:42:47;17.60;;;10.90;;
10461;SDS011;5278;42.656;23.374;2023-02-18T07:45:14;21.43;;;11.97;;
10461;SDS011;5278;42.656;23.374;2023-02-18T07:47:41;20.27;;;11.60;;
10461;SDS011;5278;42.656;23.374;2023-02-18T07:50:10;20.07;;;12.27;;
10461;SDS011;5278;42.656;23.374;2023-02-18T07:52:37;17.53;;;11.53;;
10461;SDS011;5278;42.656;23.374;2023-02-18T07:55:06;23.53;;;13.47;;
10461;SDS011;5278;42.656;23.374;2023-02-18T07:57:34;18.20;;;11.90;;
10461;SDS011;5278;42.656;23.374;2023-02-18T08:00:21;16.37;;;10.70;;
10461;SDS011;5278;42.656;23.374;2023-02-18T08:02:48;17.03;;;11.80;;
10461;SDS011;5278;42.656;23.374;2023-02-18T08:05:15;21.77;;;12.63;;
10461;SDS011;5278;42.656;23.374;2023-02-18T08:07:42;21.27;;;11.40;;
10461;SDS011;5278;42.656;23.374;2023-02-18T08:10:11;19.83;;;11.23;;
10461;SDS011;5278;42.656;23.374;2023-02-18T08:12:37;17.90;;;11.40;;
10461;SDS011;5278;42.656;23.374;2023-02-18T08:15:04;16.87;;;10.93;;
10461;SDS011;5278;42.656;23.374;2023-02-18T08:17:31;16.43;;;11.27;;
10461;SDS011;5278;42.656;23.374;2023-02-18T08:19:58;17.60;;;10.90;;
10461;SDS011;5278;42.656;23.374;2023-02-18T08:22:25;15.73;;;10.57;;
10461;SDS011;5278;42.656;23.374;2023-02-18T08:24:53;17.33;;;10.70;;
10461;SDS011;5278;42.656;23.374;2023-02-18T08:27:22;13.57;;;9.80;;
10461;SDS011;5278;42.656;23.374;2023-02-18T08:29:50;14.00;;;10.27;;
10461;SDS011;5278;42.656;23.374;2023-02-18T08:32:20;16.57;;;11.20;;
10461;SDS011;5278;42.656;23.374;2023-02-18T08:34:46;22.33;;;11.37;;
10461;SDS011;5278;42.656;23.374;2023-02-18T08:37:13;19.80;;;10.90;;
10461;SDS011;5278;42.656;23.374;2023-02-18T08:39:40;18.17;;;11.17;;
10461;SDS011;5278;42.656;23.374;2023-02-18T08:42:07;16.50;;;11.27;;
10461;SDS011;5278;42.656;23.374;2023-02-18T08:44:37;20.07;;;11.10;;
10461;SDS011;5278;42.656;23.374;2023-02-18T08:47:04;16.83;;;10.70;;
10461;SDS011;5278;42.656;23.374;2023-02-18T08:49:31;17.97;;;10.97;;
10461;SDS011;5278;42.656;23.374;2023-02-18T08:51:58;19.17;;;10.80;;
10461;SDS011;5278;42.656;23.374;2023-02-18T08:54:24;17.60;;;10.77;;
10461;SDS011;5278;42.656;23.374;2023-02-18T08:56:52;21.97;;;10.80;;
10461;SDS011;5278;42.656;23.374;2023-02-18T08:59:21;17.50;;;10.87;;
10461;SDS011;5278;42.656;23.374;2023-02-18T09:01:50;17.63;;;11.10;;
10461;SDS011;5278;42.656;23.374;2023-02-18T09:04:17;17.23;;;10.87;;
10461;SDS011;5278;42.656;23.374;2023-02-18T09:06:45;20.47;;;11.23;;
10461;SDS011;5278;42.656;23.374;2023-02-18T09:09:14;17.00;;;11.70;;
10461;SDS011;5278;42.656;23.374;2023-02-18T09:11:42;14.90;;;10.70;;
10461;SDS011;5278;42.656;23.374;2023-02-18T09:14:11;19.17;;;11.60;;
10461;SDS011;5278;42.656;23.374;2023-02-18T09:16:39;16.23;;;11.77;;
10461;SDS011;5278;42.656;23.374;2023-02-18T09:19:08;17.70;;;12.20;;
10461;SDS011;5278;42.656;23.374;2023-02-18T09:21:35;18.93;;;12.23;;
10461;SDS011;5278;42.656;23.374;2023-02-18T09:24:02;15.50;;;11.23;;
10461;SDS011;5278;42.656;23.374;2023-02-18T09:26:30;16.40;;;10.93;;
10461;SDS011;5278;42.656;23.374;2023-02-18T09:28:57;17.70;;;11.77;;
10461;SDS011;5278;42.656;23.374;2023-02-18T09:31:25;19.23;;;12.50;;
10461;SDS011;5278;42.656;23.374;2023-02-18T09:33:54;19.57;;;12.20;;
10461;SDS011;5278;42.656;23.374;2023-02-18T09:36:24;22.03;;;12.20;;
10461;SDS011;5278;42.656;23.374;2023-02-18T09:38:51;20.13;;;11.23;;
10461;SDS011;5278;42.656;23.374;2023-02-18T09:41:23;17.83;;;10.53;;
10461;SDS011;5278;42.656;23.374;2023-02-18T09:43:56;15.27;;;11.17;;
10461;SDS011;5278;42.656;23.374;2023-02-18T09:46:26;23.67;;;14.67;;
10461;SDS011;5278;42.656;23.374;2023-02-18T09:48:59;20.23;;;11.50;;
10461;SDS011;5278;42.656;23.374;2023-02-18T09:51:29;17.40;;;10.83;;
10461;SDS011;5278;42.656;23.374;2023-02-18T09:53:56;16.13;;;10.97;;
10461;SDS011;5278;42.656;23.374;2023-02-18T09:56:26;19.00;;;12.23;;
10461;SDS011;5278;42.656;23.374;2023-02-18T09:58:56;18.30;;;11.90;;
10461;SDS011;5278;42.656;23.374;2023-02-18T10:01:27;18.77;;;11.60;;
10461;SDS011;5278;42.656;23.374;2023-02-18T10:03:58;18.77;;;12.10;;
10461;SDS011;5278;42.656;23.374;2023-02-18T10:06:30;20.73;;;12.10;;
10461;SDS011;5278;42.656;23.374;2023-02-18T10:09:00;18.77;;;12.60;;
10461;SDS011;5278;42.656;23.374;2023-02-18T10:11:31;19.70;;;11.23;;
10461;SDS011;5278;42.656;23.374;2023-02-18T10:14:02;16.83;;;10.70;;
10461;SDS011;5278;42.656;23.374;2023-02-18T10:16:34;19.57;;;12.13;;
10461;SDS011;5278;42.656;23.374;2023-02-18T10:19:03;21.10;;;12.37;;
10461;SDS011;5278;42.656;23.374;2023-02-18T10:21:38;16.63;;;11.07;;
10461;SDS011;5278;42.656;23.374;2023-02-18T10:24:06;20.00;;;12.10;;
10461;SDS011;5278;42.656;23.374;2023-02-18T10:26:51;17.23;;;11.50;;
10461;SDS011;5278;42.656;23.374;2023-02-18T10:29:19;15.77;;;10.30;;
10461;SDS011;5278;42.656;23.374;2023-02-18T10:31:51;18.47;;;13.63;;
10461;SDS011;5278;42.656;23.374;2023-02-18T10:34:23;17.47;;;11.67;;
10461;SDS011;5278;42.656;23.374;2023-02-18T10:37:11;19.63;;;11.83;;
10461;SDS011;5278;42.656;23.374;2023-02-18T10:39:55;17.33;;;11.83;;
10461;SDS011;5278;42.656;23.374;2023-02-18T10:42:31;16.27;;;11.33;;
10461;SDS011;5278;42.656;23.374;2023-02-18T10:45:11;18.60;;;11.40;;
10461;SDS011;5278;42.656;23.374;2023-02-18T10:47:48;13.67;;;10.70;;
10461;SDS011;5278;42.656;23.374;2023-02-18T10:50:24;21.43;;;12.67;;
10461;SDS011;5278;42.656;23.374;2023-02-18T10:52:56;17.07;;;10.30;;
10461;SDS011;5278;42.656;23.374;2023-02-18T10:55:34;15.97;;;10.87;;
10461;SDS011;5278;42.656;23.374;2023-02-18T10:58:03;15.27;;;10.83;;
10461;SDS011;5278;42.656;23.374;2023-02-18T11:00:49;18.37;;;11.03;;
10461;SDS011;5278;42.656;23.374;2023-02-18T11:03:17;16.67;;;11.00;;
10461;SDS011;5278;42.656;23.374;2023-02-18T11:05:46;21.00;;;15.70;;
10461;SDS011;5278;42.656;23.374;2023-02-18T11:08:18;13.70;;;10.27;;
10461;SDS011;5278;42.656;23.374;2023-02-18T11:10:48;14.10;;;10.60;;
10461;SDS011;5278;42.656;23.374;2023-02-18T11:13:16;20.40;;;10.17;;
10461;SDS011;5278;42.656;23.374;2023-02-18T11:15:58;14.17;;;10.47;;
10461;SDS011;5278;42.656;23.374;2023-02-18T11:18:29;14.50;;;11.37;;
10461;SDS011;5278;42.656;23.374;2023-02-18T11:21:02;23.63;;;16.73;;
10461;SDS011;5278;42.656;23.374;2023-02-18T11:23:33;19.00;;;13.27;;
10461;SDS011;5278;42.656;23.374;2023-02-18T11:26:12;18.23;;;10.53;;
10461;SDS011;5278;42.656;23.374;2023-02-18T11:28:43;13.80;;;10.50;;
10461;SDS011;5278;42.656;23.374;2023-02-18T11:31:16;17.50;;;10.60;;
10461;SDS011;5278;42.656;23.374;2023-02-18T11:33:47;15.50;;;9.47;;
10461;SDS011;5278;42.656;23.374;2023-02-18T11:36:20;15.33;;;9.37;;
10461;SDS011;5278;42.656;23.374;2023-02-18T11:38:51;16.10;;;9.63;;
10461;SDS011;5278;42.656;23.374;2023-02-18T11:41:21;11.13;;;6.30;;
10461;SDS011;5278;42.656;23.374;2023-02-18T11:43:57;6.53;;;4.40;;
10461;SDS011;5278;42.656;23.374;2023-02-18T11:46:27;6.40;;;4.50;;
10461;SDS011;5278;42.656;23.374;2023-02-18T11:48:54;10.37;;;4.57;;
10461;SDS011;5278;42.656;23.374;2023-02-18T11:51:23;7.73;;;4.30;;
10461;SDS011;5278;42.656;23.374;2023-02-18T11:54:00;8.97;;;5.03;;
10461;SDS011;5278;42.656;23.374;2023-02-18T11:56:29;5.53;;;4.30;;
10461;SDS011;5278;42.656;23.374;2023-02-18T11:58:58;8.50;;;5.17;;
10461;SDS011;5278;42.656;23.374;2023-02-18T12:01:36;5.80;;;5.03;;
10461;SDS011;5278;42.656;23.374;2023-02-18T12:04:11;8.57;;;5.03;;
10461;SDS011;5278;42.656;23.374;2023-02-18T12:06:42;6.77;;;5.03;;
10461;SDS011;5278;42.656;23.374;2023-02-18T12:09:19;8.17;;;4.87;;
10461;SDS011;5278;42.656;23.374;2023-02-18T12:11:53;9.40;;;4.77;;
10461;SDS011;5278;42.656;23.374;2023-02-18T12:14:22;5.57;;;4.83;;
10461;SDS011;5278;42.656;23.374;2023-02-18T12:16:58;11.67;;;7.47;;
10461;SDS011;5278;42.656;23.374;2023-02-18T12:19:55;8.00;;;5.83;;
10461;SDS011;5278;42.656;23.374;2023-02-18T12:22:36;10.60;;;6.13;;
10461;SDS011;5278;42.656;23.374;2023-02-18T12:28:09;11.77;;;5.03;;
10461;SDS011;5278;42.656;23.374;2023-02-18T12:30:57;9.53;;;6.87;;
10461;SDS011;5278;42.656;23.374;2023-02-18T12:33:40;6.17;;;5.00;;
10461;SDS011;5278;42.656;23.374;2023-02-18T12:36:19;8.57;;;4.67;;
10461;SDS011;5278;42.656;23.374;2023-02-18T12:39:02;7.30;;;4.83;;
10461;SDS011;5278;42.656;23.374;2023-02-18T12:44:39;5.70;;;4.60;;
10461;SDS011;5278;42.656;23.374;2023-02-18T12:47:17;6.70;;;5.30;;
10461;SDS011;5278;42.656;23.374;2023-02-18T12:50:02;10.13;;;5.13;;
10461;SDS011;5278;42.656;23.374;2023-02-18T12:52:57;6.07;;;4.43;;
10461;SDS011;5278;42.656;23.374;2023-02-18T12:55:40;6.60;;;5.10;;
10461;SDS011;5278;42.656;23.374;2023-02-18T12:58:17;5.17;;;4.60;;
10461;SDS011;5278;42.656;23.374;2023-02-18T13:04:08;6.83;;;4.70;;
10461;SDS011;5278;42.656;23.374;2023-02-18T13:06:55;6.40;;;4.50;;
10461;SDS011;5278;42.656;23.374;2023-02-18T13:09:35;7.23;;;4.03;;
10461;SDS011;5278;42.656;23.374;2023-02-18T13:12:16;5.93;;;4.07;;
10461;SDS011;5278;42.656;23.374;2023-02-18T13:14:47;6.40;;;3.80;;
10461;SDS011;5278;42.656;23.374;2023-02-18T13:17:21;5.50;;;3.60;;
10461;SDS011;5278;42.656;23.374;2023-02-18T13:19:51;5.63;;;3.40;;
10461;SDS011;5278;42.656;23.374;2023-02-18T13:22:23;4.93;;;3.30;;
10461;SDS011;5278;42.656;23.374;2023-02-18T13:24:53;8.07;;;3.63;;
10461;SDS011;5278;42.656;23.374;2023-02-18T13:27:23;6.50;;;4.37;;
10461;SDS011;5278;42.656;23.374;2023-02-18T13:30:08;5.50;;;3.47;;
10461;SDS011;5278;42.656;23.374;2023-02-18T13:32:50;5.13;;;3.00;;
10461;SDS011;5278;42.656;23.374;2023-02-18T13:35:28;4.57;;;3.10;;
10461;SDS011;5278;42.656;23.374;2023-02-18T13:38:02;5.67;;;2.87;;
10461;SDS011;5278;42.656;23.374;2023-02-18T13:40:51;4.60;;;3.27;;
10461;SDS011;5278;42.656;23.374;2023-02-18T13:43:20;6.63;;;3.33;;
10461;SDS011;5278;42.656;23.374;2023-02-18T13:46:08;5.67;;;4.07;;
10461;SDS011;5278;42.656;23.374;2023-02-18T13:48:41;6.00;;;3.90;;
10461;SDS011;5278;42.656;23.374;2023-02-18T13:51:11;7.27;;;3.90;;
10461;SDS011;5278;42.656;23.374;2023-02-18T13:53:39;7.00;;;4.20;;
10461;SDS011;5278;42.656;23.374;2023-02-18T13:56:08;6.30;;;4.13;;
10461;SDS011;5278;42.656;23.374;2023-02-18T13:58:47;8.57;;;5.17;;
10461;SDS011;5278;42.656;23.374;2023-02-18T14:01:19;7.10;;;4.63;;
10461;SDS011;5278;42.656;23.374;2023-02-18T14:03:51;7.70;;;4.50;;
10461;SDS011;5278;42.656;23.374;2023-02-18T14:06:23;6.87;;;4.30;;
10461;SDS011;5278;42.656;23.374;2023-02-18T14:09:01;6.07;;;4.57;;
10461;SDS011;5278;42.656;23.374;2023-02-18T14:11:41;5.93;;;4.47;;
10461;SDS011;5278;42.656;23.374;2023-02-18T14:14:13;8.07;;;4.70;;
10461;SDS011;5278;42.656;23.374;2023-02-18T14:20:28;6.10;;;3.90;;
10461;SDS011;5278;42.656;23.374;2023-02-18T14:22:58;13.43;;;4.63;;
10461;SDS011;5278;42.656;23.374;2023-02-18T14:25:32;6.27;;;4.30;;
10461;SDS011;5278;42.656;23.374;2023-02-18T14:28:03;5.63;;;4.00;;
10461;SDS011;5278;42.656;23.374;2023-02-18T14:30:53;6.80;;;4.20;;
10461;SDS011;5278;42.656;23.374;2023-02-18T14:33:19;5.23;;;3.97;;
10461;SDS011;5278;42.656;23.374;2023-02-18T14:35:49;7.43;;;4.30;;
10461;SDS011;5278;42.656;23.374;2023-02-18T14:38:36;11.60;;;4.40;;
10461;SDS011;5278;42.656;23.374;2023-02-18T14:41:21;6.90;;;4.10;;
10461;SDS011;5278;42.656;23.374;2023-02-18T14:44:12;6.00;;;4.43;;
10461;SDS011;5278;42.656;23.374;2023-02-18T14:46:51;5.90;;;3.77;;
10461;SDS011;5278;42.656;23.374;2023-02-18T14:52:18;8.40;;;4.70;;
10461;SDS011;5278;42.656;23.374;2023-02-18T14:54:54;9.00;;;5.00;;
10461;SDS011;5278;42.656;23.374;2023-02-18T14:57:23;6.07;;;4.00;;
10461;SDS011;5278;42.656;23.374;2023-02-18T14:59:59;7.87;;;4.57;;
10461;SDS011;5278;42.656;23.374;2023-02-18T15:02:27;7.97;;;4.10;;
10461;SDS011;5278;42.656;23.374;2023-02-18T15:05:04;7.03;;;4.03;;
10461;SDS011;5278;42.656;23.374;2023-02-18T15:07:40;8.20;;;4.13;;
10461;SDS011;5278;42.656;23.374;2023-02-18T15:10:12;7.57;;;3.87;;
10461;SDS011;5278;42.656;23.374;2023-02-18T15:12:40;9.07;;;5.00;;
10461;SDS011;5278;42.656;23.374;2023-02-18T15:15:08;7.60;;;4.30;;
10461;SDS011;5278;42.656;23.374;2023-02-18T15:17:43;7.27;;;4.70;;
10461;SDS011;5278;42.656;23.374;2023-02-18T15:20:11;8.00;;;4.30;;